createdAt,value
2023-03-03T00:01:07.852Z,13.82
2023-03-03T00:03:24.805Z,12.75
2023-03-03T00:05:42.894Z,11.75
2023-03-03T00:08:00.987Z,10.65
2023-03-03T00:10:18.208Z,14.25
2023-03-03T00:12:36.237Z,11.90
2023-03-03T00:14:53.199Z,13.05
2023-03-03T00:17:10.224Z,12.93
2023-03-03T00:19:27.142Z,13.02
2023-03-03T00:21:44.155Z,13.05
2023-03-03T00:24:01.538Z,12.52
2023-03-03T00:26:18.483Z,13.40
2023-03-03T00:28:35.554Z,12.85
2023-03-03T00:30:52.497Z,14.05
2023-03-03T00:33:09.920Z,15.45
2023-03-03T00:35:26.820Z,14.23
2023-03-03T00:37:44.178Z,14.43
2023-03-03T00:40:01.085Z,12.95
2023-03-03T00:42:18.188Z,13.05
2023-03-03T00:44:35.138Z,12.68
2023-03-03T00:46:52.166Z,14.18
2023-03-03T00:49:09.249Z,11.52
2023-03-03T00:51:26.226Z,11.23
2023-03-03T00:53:43.265Z,13.85
2023-03-03T00:56:01.234Z,13.60
2023-03-03T00:58:18.212Z,10.82
2023-03-03T01:00:35.521Z,13.00
2023-03-03T01:02:52.703Z,11.90
2023-03-03T01:05:10.570Z,12.70
2023-03-03T01:07:27.865Z,14.27
2023-03-03T01:09:46.211Z,12.32
2023-03-03T01:12:03.082Z,13.82
2023-03-03T01:14:20.052Z,12.20
2023-03-03T01:16:36.999Z,12.32
2023-03-03T01:18:53.958Z,9.93
2023-03-03T01:21:11.222Z,13.02
2023-03-03T01:23:28.319Z,13.45
2023-03-03T01:25:45.617Z,10.95
2023-03-03T01:28:02.704Z,13.98
2023-03-03T01:30:19.713Z,11.52
2023-03-03T01:32:36.737Z,12.82
2023-03-03T01:34:54.589Z,13.85
2023-03-03T01:37:11.893Z,11.13
2023-03-03T01:39:28.865Z,11.02
2023-03-03T01:41:45.939Z,11.82
2023-03-03T01:44:02.998Z,12.85
2023-03-03T01:46:20.212Z,13.40
2023-03-03T01:48:37.511Z,13.48
2023-03-03T01:50:54.365Z,11.50
2023-03-03T01:53:11.667Z,10.32
2023-03-03T01:55:28.629Z,11.93
2023-03-03T01:57:45.556Z,12.90
2023-03-03T02:00:02.544Z,11.55
2023-03-03T02:02:20.093Z,10.95
2023-03-03T02:04:37.405Z,9.93
2023-03-03T02:06:54.700Z,11.88
2023-03-03T02:09:11.743Z,10.93
2023-03-03T02:11:29.747Z,12.90
2023-03-03T02:13:47.123Z,10.40
2023-03-03T02:16:04.396Z,11.43
2023-03-03T02:18:22.630Z,13.85
2023-03-03T02:20:39.534Z,12.15
2023-03-03T02:22:56.429Z,9.90
2023-03-03T02:25:13.715Z,14.02
2023-03-03T02:27:30.810Z,10.88
2023-03-03T02:29:49.985Z,13.25
2023-03-03T02:32:07.388Z,10.07
2023-03-03T02:34:24.658Z,10.70
2023-03-03T02:36:41.673Z,12.90
2023-03-03T02:38:59.030Z,12.70
2023-03-03T02:41:16.313Z,13.90
2023-03-03T02:43:33.347Z,12.43
2023-03-03T02:45:50.342Z,14.77
2023-03-03T02:48:07.687Z,11.98
2023-03-03T02:50:24.989Z,11.25
2023-03-03T02:52:41.872Z,12.13
2023-03-03T02:54:59.693Z,11.50
2023-03-03T02:57:17.794Z,12.30
2023-03-03T02:59:34.741Z,14.32
2023-03-03T03:01:51.786Z,13.18
2023-03-03T03:04:09.491Z,11.15
2023-03-03T03:06:26.726Z,9.77
2023-03-03T03:08:43.992Z,12.75
2023-03-03T03:11:01.868Z,11.52
2023-03-03T03:13:18.825Z,10.43
2023-03-03T03:15:35.833Z,11.30
2023-03-03T03:17:53.129Z,13.27
2023-03-03T03:20:10.639Z,11.65
2023-03-03T03:22:27.652Z,12.32
2023-03-03T03:24:44.611Z,13.52
2023-03-03T03:27:01.957Z,12.27
2023-03-03T03:29:19.221Z,11.18
2023-03-03T03:31:37.234Z,11.90
2023-03-03T03:33:55.281Z,13.52
2023-03-03T03:36:12.348Z,11.13
2023-03-03T03:38:29.303Z,13.50
2023-03-03T03:40:46.219Z,14.60
2023-03-03T03:43:03.545Z,10.30
2023-03-03T03:45:20.512Z,11.13
2023-03-03T03:47:37.796Z,10.30
2023-03-03T03:49:54.739Z,11.27
2023-03-03T03:52:12.106Z,11.40
2023-03-03T03:54:29.250Z,11.32
2023-03-03T03:56:46.254Z,12.13
2023-03-03T03:59:03.543Z,13.57
2023-03-03T04:01:20.834Z,13.27
2023-03-03T04:03:38.156Z,12.23
2023-03-03T04:05:55.484Z,13.35
2023-03-03T04:08:12.609Z,13.73
2023-03-03T04:10:29.608Z,12.95
2023-03-03T04:12:46.731Z,10.48
2023-03-03T04:15:03.669Z,12.52
2023-03-03T04:17:21.997Z,13.02
2023-03-03T04:19:39.349Z,12.57
2023-03-03T04:21:56.318Z,12.35
2023-03-03T04:24:13.309Z,12.70
2023-03-03T04:26:31.196Z,10.73
2023-03-03T04:28:48.117Z,11.50
2023-03-03T04:31:05.262Z,11.40
2023-03-03T04:33:22.240Z,13.10
2023-03-03T04:35:39.579Z,13.60
2023-03-03T04:37:56.683Z,12.35
2023-03-03T04:40:14.674Z,11.52
2023-03-03T04:42:31.692Z,14.32
2023-03-03T04:44:48.602Z,12.20
2023-03-03T04:47:05.944Z,12.93
2023-03-03T04:49:22.928Z,12.75
2023-03-03T04:51:40.257Z,13.90
2023-03-03T04:53:57.340Z,11.63
2023-03-03T04:56:14.437Z,14.13
2023-03-03T04:58:31.777Z,14.07
2023-03-03T05:00:48.736Z,12.95
2023-03-03T05:03:06.053Z,12.50
2023-03-03T05:05:22.953Z,12.35
2023-03-03T05:07:39.943Z,11.32
2023-03-03T05:09:56.960Z,13.35
2023-03-03T05:12:14.301Z,13.95
2023-03-03T05:14:31.404Z,12.80
2023-03-03T05:16:48.345Z,11.82
2023-03-03T05:19:05.616Z,11.98
2023-03-03T05:21:22.511Z,14.45
2023-03-03T05:23:39.604Z,15.10
2023-03-03T05:25:56.636Z,11.13
2023-03-03T05:28:14.497Z,13.65
2023-03-03T05:30:31.574Z,13.25
2023-03-03T05:32:48.472Z,13.93
2023-03-03T05:35:05.794Z,14.65
2023-03-03T05:37:22.746Z,11.73
2023-03-03T05:39:40.069Z,14.13
2023-03-03T05:41:57.317Z,14.20
2023-03-03T05:44:14.428Z,13.40
2023-03-03T05:46:31.642Z,15.52
2023-03-03T05:48:48.669Z,15.00
2023-03-03T05:51:05.782Z,15.98
2023-03-03T05:53:22.767Z,14.82
2023-03-03T05:55:40.063Z,14.75
2023-03-03T05:57:57.348Z,14.10
2023-03-03T06:00:14.424Z,15.30
2023-03-03T06:02:31.406Z,17.90
2023-03-03T06:04:48.336Z,13.00
2023-03-03T06:07:05.645Z,16.02
2023-03-03T06:09:23.011Z,18.10
2023-03-03T06:11:40.202Z,17.27
2023-03-03T06:13:57.300Z,17.52
2023-03-03T06:16:14.625Z,21.70
2023-03-03T06:18:31.746Z,18.65
2023-03-03T06:20:48.724Z,36.88
2023-03-03T06:23:07.014Z,26.60
2023-03-03T06:25:24.294Z,22.40
2023-03-03T06:27:41.339Z,24.58
2023-03-03T06:29:58.386Z,23.60
2023-03-03T06:32:16.641Z,19.48
2023-03-03T06:34:33.973Z,22.20
2023-03-03T06:36:51.296Z,25.15
2023-03-03T06:39:08.420Z,20.27
2023-03-03T06:41:25.679Z,37.60
2023-03-03T06:43:42.797Z,36.50
2023-03-03T06:46:00.163Z,42.85
2023-03-03T06:48:18.434Z,36.65
2023-03-03T06:50:35.355Z,30.13
2023-03-03T06:52:53.265Z,30.83
2023-03-03T06:55:10.328Z,30.25
2023-03-03T06:57:27.320Z,28.55
2023-03-03T06:59:44.536Z,25.23
2023-03-03T07:02:01.838Z,32.50
2023-03-03T07:04:18.804Z,27.95
2023-03-03T07:06:35.905Z,29.02
2023-03-03T07:08:52.997Z,28.55
2023-03-03T07:11:12.805Z,28.52
2023-03-03T07:13:29.825Z,25.73
2023-03-03T07:15:46.952Z,28.55
2023-03-03T07:18:03.929Z,25.45
2023-03-03T07:20:20.853Z,28.25
2023-03-03T07:22:38.188Z,26.67
2023-03-03T07:24:55.148Z,26.67
2023-03-03T07:27:12.052Z,25.00
2023-03-03T07:29:29.185Z,23.77
2023-03-03T07:31:46.372Z,27.13
2023-03-03T07:34:03.417Z,27.73
2023-03-03T07:36:21.331Z,26.33
2023-03-03T07:38:40.596Z,25.13
2023-03-03T07:40:57.604Z,29.50
2023-03-03T07:43:14.579Z,24.27
2023-03-03T07:45:31.495Z,27.40
2023-03-03T07:47:48.947Z,25.50
2023-03-03T07:50:05.932Z,26.67
2023-03-03T07:52:23.253Z,25.40
2023-03-03T07:54:40.703Z,30.92
2023-03-03T07:56:57.588Z,31.92
2023-03-03T07:59:14.615Z,30.67
2023-03-03T08:01:31.688Z,30.10
2023-03-03T08:03:48.943Z,32.92
2023-03-03T08:06:06.065Z,30.13
2023-03-03T08:08:23.158Z,32.80
2023-03-03T08:10:42.397Z,37.03
2023-03-03T08:12:59.442Z,38.17
2023-03-03T08:15:16.369Z,46.97
2023-03-03T08:17:33.401Z,37.72
2023-03-03T08:19:50.375Z,43.58
2023-03-03T08:22:07.454Z,45.58
2023-03-03T08:24:24.530Z,43.25
2023-03-03T08:26:41.594Z,46.53
2023-03-03T08:28:58.989Z,42.83
2023-03-03T08:31:28.019Z,44.50
2023-03-03T08:33:49.027Z,45.67
2023-03-03T08:36:06.017Z,48.25
2023-03-03T08:38:23.351Z,41.90
2023-03-03T08:40:40.663Z,47.40
2023-03-03T08:42:57.736Z,42.08
2023-03-03T08:45:14.959Z,44.72
2023-03-03T08:47:31.904Z,38.58
2023-03-03T08:49:48.893Z,44.63
2023-03-03T08:52:05.997Z,41.88
2023-03-03T08:54:23.923Z,43.10
2023-03-03T08:56:41.028Z,44.10
2023-03-03T08:59:02.890Z,42.83
2023-03-03T09:01:20.211Z,43.15
2023-03-03T09:03:37.313Z,43.00
2023-03-03T09:05:54.270Z,38.67
2023-03-03T09:08:11.411Z,41.53
2023-03-03T09:10:28.696Z,41.42
2023-03-03T09:12:45.637Z,44.05
2023-03-03T09:15:02.734Z,42.85
2023-03-03T09:17:19.976Z,43.85
2023-03-03T09:19:37.537Z,41.50
2023-03-03T09:21:54.966Z,41.80
2023-03-03T09:24:11.949Z,43.30
2023-03-03T09:26:29.280Z,44.53
2023-03-03T09:28:46.322Z,44.40
2023-03-03T09:31:05.270Z,87.97
2023-03-03T09:33:23.525Z,96.38
2023-03-03T09:35:40.842Z,70.65
2023-03-03T09:37:57.851Z,64.63
2023-03-03T09:40:14.885Z,75.38
2023-03-03T09:42:31.941Z,73.22
2023-03-03T09:44:49.006Z,102.60
2023-03-03T09:47:06.027Z,77.30
2023-03-03T09:49:26.059Z,94.85
2023-03-03T09:51:43.706Z,56.55
2023-03-03T09:54:00.601Z,54.80
2023-03-03T09:56:17.881Z,49.90
2023-03-03T09:58:34.910Z,47.55
2023-03-03T10:00:51.850Z,44.00
2023-03-03T10:03:09.763Z,44.38
2023-03-03T10:05:27.696Z,47.22
2023-03-03T10:07:45.042Z,43.97
2023-03-03T10:10:02.143Z,46.80
2023-03-03T10:12:19.406Z,44.88
2023-03-03T10:14:36.390Z,53.67
2023-03-03T10:16:54.044Z,46.58
2023-03-03T10:19:11.502Z,47.08
2023-03-03T10:21:28.437Z,45.67
2023-03-03T10:23:45.468Z,47.45
2023-03-03T10:26:02.349Z,51.28
2023-03-03T10:28:19.643Z,47.08
2023-03-03T10:30:42.657Z,50.45
2023-03-03T10:33:01.472Z,47.53
2023-03-03T10:35:18.766Z,51.33
2023-03-03T10:37:35.729Z,55.38
2023-03-03T10:39:52.650Z,53.08
2023-03-03T10:42:09.546Z,50.67
2023-03-03T10:44:26.581Z,50.55
2023-03-03T10:46:43.659Z,48.10
2023-03-03T10:49:02.235Z,52.97
2023-03-03T10:51:19.251Z,49.45
2023-03-03T10:53:36.215Z,50.05
2023-03-03T10:55:53.142Z,46.13
2023-03-03T10:58:10.398Z,48.28
2023-03-03T11:00:27.323Z,51.33
2023-03-03T11:02:44.435Z,48.13
2023-03-03T11:05:01.936Z,52.13
2023-03-03T11:07:19.374Z,49.58
2023-03-03T11:09:36.667Z,51.22
2023-03-03T11:11:53.673Z,48.35
2023-03-03T11:14:10.921Z,47.83
2023-03-03T11:16:27.798Z,47.45
2023-03-03T11:18:44.801Z,47.55
2023-03-03T11:21:01.844Z,45.42
2023-03-03T11:23:18.917Z,43.45
2023-03-03T11:25:35.933Z,48.15
2023-03-03T11:27:53.237Z,46.30
2023-03-03T11:30:10.243Z,45.88
2023-03-03T11:32:27.335Z,44.58
2023-03-03T11:34:44.632Z,43.78
2023-03-03T11:37:01.645Z,49.20
2023-03-03T11:39:18.589Z,46.42
2023-03-03T11:41:35.626Z,49.17
2023-03-03T11:43:52.858Z,48.30
2023-03-03T11:46:09.855Z,48.85
2023-03-03T11:48:26.771Z,46.05
2023-03-03T11:50:43.788Z,49.20
2023-03-03T11:53:01.033Z,46.83
2023-03-03T11:55:18.039Z,47.08
2023-03-03T11:57:34.951Z,49.00
2023-03-03T11:59:51.891Z,48.03
2023-03-03T12:02:08.814Z,47.97
2023-03-03T12:04:26.649Z,51.28
2023-03-03T12:06:43.517Z,45.28
2023-03-03T12:09:00.477Z,51.05
2023-03-03T12:11:17.720Z,45.85
2023-03-03T12:13:34.725Z,44.35
2023-03-03T12:15:52.032Z,47.90
2023-03-03T12:18:08.991Z,45.97
2023-03-03T12:20:25.875Z,46.85
2023-03-03T12:22:43.115Z,44.40
2023-03-03T12:25:00.069Z,45.40
2023-03-03T12:27:17.023Z,44.10
2023-03-03T12:29:33.997Z,47.80
2023-03-03T12:31:51.949Z,45.22
2023-03-03T12:34:08.877Z,45.75
2023-03-03T12:36:26.133Z,47.33
2023-03-03T12:38:43.054Z,47.97
2023-03-03T12:41:00.088Z,43.55
2023-03-03T12:43:17.044Z,45.42
2023-03-03T12:45:33.973Z,44.92
2023-03-03T12:47:51.928Z,45.33
2023-03-03T12:50:09.958Z,43.33
2023-03-03T12:52:26.831Z,41.72
2023-03-03T12:54:44.079Z,42.78
2023-03-03T12:57:01.099Z,43.83
2023-03-03T12:59:18.404Z,42.38
2023-03-03T13:01:35.620Z,44.53
2023-03-03T13:03:56.140Z,44.40
2023-03-03T13:06:14.456Z,41.17
2023-03-03T13:08:32.501Z,42.70
2023-03-03T13:10:49.428Z,42.55
2023-03-03T13:13:06.350Z,43.58
2023-03-03T13:15:31.775Z,40.33
2023-03-03T13:17:49.592Z,39.58
2023-03-03T13:20:06.867Z,37.97
2023-03-03T13:22:23.955Z,38.67
2023-03-03T13:24:42.619Z,40.67
2023-03-03T13:27:00.801Z,40.55
2023-03-03T13:29:18.142Z,42.38
2023-03-03T13:31:35.073Z,42.17
2023-03-03T13:33:52.194Z,39.00
2023-03-03T13:36:09.213Z,41.78
2023-03-03T13:38:26.115Z,42.05
2023-03-03T13:40:43.420Z,39.45
2023-03-03T13:43:01.646Z,39.92
2023-03-03T13:45:18.913Z,39.20
2023-03-03T13:47:35.987Z,39.33
2023-03-03T13:49:52.908Z,38.55
2023-03-03T13:52:09.939Z,37.28
2023-03-03T13:54:26.964Z,37.15
2023-03-03T13:56:43.902Z,36.75
2023-03-03T13:59:00.937Z,38.67
2023-03-03T14:01:17.910Z,38.75
2023-03-03T14:03:35.009Z,37.63
2023-03-03T14:05:52.268Z,37.63
2023-03-03T14:08:09.339Z,36.03
2023-03-03T14:10:26.278Z,36.42
2023-03-03T14:12:43.261Z,36.33
2023-03-03T14:15:00.194Z,37.75
2023-03-03T14:17:17.116Z,34.72
2023-03-03T14:19:35.148Z,38.70
2023-03-03T14:21:52.174Z,36.50
2023-03-03T14:24:09.235Z,35.47
2023-03-03T14:26:26.511Z,33.08
2023-03-03T14:28:43.772Z,36.78
2023-03-03T14:31:03.119Z,34.33
2023-03-03T14:33:20.225Z,35.20
2023-03-03T14:35:37.167Z,41.03
2023-03-03T14:37:54.198Z,39.33
2023-03-03T14:40:11.110Z,43.17
2023-03-03T14:42:27.964Z,40.95
2023-03-03T14:44:45.252Z,44.08
2023-03-03T14:47:02.518Z,40.70
2023-03-03T14:49:19.811Z,37.75
2023-03-03T14:51:37.089Z,44.47
2023-03-03T14:53:54.190Z,49.65
2023-03-03T14:56:11.153Z,52.53
2023-03-03T14:58:28.390Z,38.42
2023-03-03T15:00:45.653Z,36.10
2023-03-03T15:03:02.581Z,42.50
2023-03-03T15:05:19.711Z,39.45
2023-03-03T15:07:36.824Z,37.30
2023-03-03T15:09:53.860Z,40.35
2023-03-03T15:12:11.286Z,38.28
2023-03-03T15:14:28.216Z,39.45
2023-03-03T15:16:45.285Z,39.30
2023-03-03T15:19:02.280Z,45.30
2023-03-03T15:21:20.158Z,43.28
2023-03-03T15:23:37.454Z,46.60
2023-03-03T15:25:57.693Z,52.65
2023-03-03T15:28:15.747Z,48.03
2023-03-03T15:30:32.688Z,48.35
2023-03-03T15:32:49.817Z,50.08
2023-03-03T15:35:06.740Z,48.63
2023-03-03T15:37:24.030Z,46.53
2023-03-03T15:39:41.325Z,47.55
2023-03-03T15:41:58.263Z,46.15
2023-03-03T15:44:15.191Z,47.70
2023-03-03T15:46:32.237Z,46.53
2023-03-03T15:48:49.593Z,45.40
2023-03-03T15:51:06.626Z,42.85
2023-03-03T15:53:23.912Z,46.47
2023-03-03T15:55:40.831Z,44.22
2023-03-03T15:57:57.879Z,45.47
2023-03-03T16:00:15.157Z,44.58
2023-03-03T16:02:32.452Z,44.25
2023-03-03T16:04:49.762Z,43.83
2023-03-03T16:07:06.834Z,42.58
2023-03-03T16:09:23.788Z,42.60
2023-03-03T16:11:41.065Z,43.45
2023-03-03T16:13:58.265Z,43.70
2023-03-03T16:16:15.264Z,43.15
2023-03-03T16:18:32.357Z,42.75
2023-03-03T16:20:49.290Z,45.17
2023-03-03T16:23:06.330Z,43.08
2023-03-03T16:25:23.586Z,46.88
2023-03-03T16:27:40.570Z,48.10
2023-03-03T16:29:57.775Z,48.42
2023-03-03T16:32:15.101Z,47.65
2023-03-03T16:34:32.146Z,47.58
2023-03-03T16:36:49.032Z,52.78
2023-03-03T16:39:05.973Z,52.40
2023-03-03T16:41:22.856Z,51.08
2023-03-03T16:43:39.832Z,49.75
2023-03-03T16:45:56.850Z,51.50
2023-03-03T16:48:13.798Z,50.42
2023-03-03T16:50:30.744Z,54.03
2023-03-03T16:52:47.810Z,54.85
2023-03-03T16:55:04.871Z,52.70
2023-03-03T16:57:21.945Z,53.97
2023-03-03T16:59:38.936Z,56.38
2023-03-03T17:01:55.997Z,52.92
2023-03-03T17:04:15.359Z,50.42
2023-03-03T17:06:32.381Z,54.22
2023-03-03T17:08:49.294Z,53.75
2023-03-03T17:11:06.338Z,50.42
2023-03-03T17:13:23.619Z,55.47
2023-03-03T17:15:40.624Z,51.80
2023-03-03T17:17:57.630Z,57.15
2023-03-03T17:20:14.565Z,55.88
2023-03-03T17:22:31.479Z,60.85
2023-03-03T17:24:48.503Z,57.65
2023-03-03T17:27:05.403Z,58.38
2023-03-03T17:29:22.532Z,59.50
2023-03-03T17:31:39.548Z,59.92
2023-03-03T17:33:57.569Z,57.20
2023-03-03T17:36:15.253Z,56.33
2023-03-03T17:38:33.247Z,58.28
2023-03-03T17:40:50.227Z,58.45
2023-03-03T17:43:07.549Z,56.38
2023-03-03T17:45:24.591Z,55.67
2023-03-03T17:47:41.907Z,57.58
2023-03-03T17:49:59.276Z,58.17
2023-03-03T17:52:16.623Z,55.33
2023-03-03T17:54:33.574Z,60.53
2023-03-03T17:56:50.514Z,59.47
2023-03-03T17:59:07.558Z,57.03
2023-03-03T18:01:24.480Z,62.55
2023-03-03T18:03:41.577Z,60.67
2023-03-03T18:05:59.993Z,62.38
2023-03-03T18:08:16.878Z,59.30
2023-03-03T18:10:33.875Z,59.72
2023-03-03T18:12:51.151Z,58.88
2023-03-03T18:15:08.084Z,60.33
2023-03-03T18:17:25.025Z,60.75
2023-03-03T18:19:42.067Z,57.47
2023-03-03T18:21:58.987Z,59.65
2023-03-03T18:24:16.020Z,61.72
2023-03-03T18:26:32.950Z,56.42
2023-03-03T18:28:49.829Z,57.95
2023-03-03T18:31:06.929Z,61.33
2023-03-03T18:33:24.058Z,56.50
2023-03-03T18:35:42.085Z,63.90
2023-03-03T18:37:59.163Z,59.10
2023-03-03T18:40:16.358Z,64.45
2023-03-03T18:42:35.138Z,64.05
2023-03-03T18:44:53.435Z,59.35
2023-03-03T18:47:10.295Z,64.47
2023-03-03T18:49:27.287Z,63.10
2023-03-03T18:51:44.574Z,63.47
2023-03-03T18:54:01.557Z,60.00
2023-03-03T18:56:18.792Z,65.45
2023-03-03T18:58:35.773Z,66.05
2023-03-03T19:00:53.091Z,64.75
2023-03-03T19:03:10.216Z,65.97
2023-03-03T19:05:27.124Z,61.08
2023-03-03T19:07:44.359Z,63.15
2023-03-03T19:10:01.804Z,62.90
2023-03-03T19:12:18.938Z,61.65
2023-03-03T19:14:36.008Z,66.65
2023-03-03T19:16:52.950Z,62.03
2023-03-03T19:19:10.073Z,59.88
2023-03-03T19:21:27.071Z,63.40
2023-03-03T19:23:43.999Z,64.60
2023-03-03T19:26:00.902Z,73.65
2023-03-03T19:28:17.973Z,69.25
2023-03-03T19:30:34.839Z,68.93
2023-03-03T19:32:51.700Z,70.32
2023-03-03T19:35:08.901Z,68.20
2023-03-03T19:37:26.170Z,69.07
2023-03-03T19:39:46.106Z,67.63
2023-03-03T19:42:03.308Z,65.70
2023-03-03T19:44:21.313Z,66.25
2023-03-03T19:46:38.462Z,66.70
2023-03-03T19:48:56.792Z,68.30
2023-03-03T19:51:13.758Z,72.30
2023-03-03T19:53:31.039Z,70.90
2023-03-03T19:55:48.119Z,67.22
2023-03-03T19:58:05.136Z,76.38
2023-03-03T20:00:22.127Z,68.00
2023-03-03T20:02:39.372Z,69.97
2023-03-03T20:04:56.379Z,69.80
2023-03-03T20:07:13.736Z,74.38
2023-03-03T20:09:30.768Z,72.18
2023-03-03T20:11:48.779Z,73.03
2023-03-03T20:14:05.831Z,72.50
2023-03-03T20:16:23.131Z,67.80
2023-03-03T20:18:40.215Z,71.30
2023-03-03T20:20:57.303Z,75.85
2023-03-03T20:23:14.297Z,74.03
2023-03-03T20:25:31.604Z,78.35
2023-03-03T20:27:48.801Z,75.93
2023-03-03T20:30:06.067Z,75.65
2023-03-03T20:32:23.390Z,69.25
2023-03-03T20:34:40.337Z,77.60
2023-03-03T20:36:58.283Z,70.97
2023-03-03T20:39:15.350Z,79.55
2023-03-03T20:41:32.360Z,73.78
2023-03-03T20:43:49.268Z,73.68
2023-03-03T20:46:06.319Z,71.85
2023-03-03T20:48:23.292Z,80.55
2023-03-03T20:50:40.262Z,79.10
2023-03-03T20:52:57.216Z,77.43
2023-03-03T20:55:14.535Z,73.50
2023-03-03T20:57:31.514Z,77.63
2023-03-03T20:59:48.492Z,79.30
2023-03-03T21:02:06.683Z,78.57
2023-03-03T21:04:24.608Z,72.18
2023-03-03T21:06:41.513Z,76.45
2023-03-03T21:08:58.868Z,78.43
2023-03-03T21:11:16.972Z,81.93
2023-03-03T21:13:34.046Z,76.32
2023-03-03T21:15:50.995Z,85.55
2023-03-03T21:18:07.964Z,89.53
2023-03-03T21:20:24.824Z,87.38
2023-03-03T21:22:42.181Z,89.93
2023-03-03T21:24:59.131Z,90.28
2023-03-03T21:27:16.141Z,83.82
2023-03-03T21:29:33.432Z,87.95
2023-03-03T21:31:50.471Z,89.50
2023-03-03T21:34:09.451Z,90.68
2023-03-03T21:36:26.464Z,92.82
2023-03-03T21:38:43.686Z,96.03
2023-03-03T21:41:00.973Z,98.50
2023-03-03T21:43:18.294Z,96.70
2023-03-03T21:45:35.238Z,94.93
2023-03-03T21:47:52.448Z,93.70
2023-03-03T21:50:10.798Z,87.97
2023-03-03T21:52:28.104Z,88.47
2023-03-03T21:54:45.048Z,91.90
2023-03-03T21:57:02.337Z,91.15
2023-03-03T21:59:19.264Z,92.45
2023-03-03T22:01:38.251Z,86.13
2023-03-03T22:03:55.551Z,98.15
2023-03-03T22:06:12.642Z,102.40
2023-03-03T22:08:30.010Z,97.43
2023-03-03T22:10:47.267Z,96.45
2023-03-03T22:13:04.541Z,101.28
2023-03-03T22:15:21.606Z,99.28
2023-03-03T22:17:38.546Z,105.20
2023-03-03T22:19:55.848Z,101.38
2023-03-03T22:22:12.849Z,97.35
2023-03-03T22:24:29.749Z,109.72
2023-03-03T22:26:46.685Z,101.78
2023-03-03T22:29:03.756Z,109.80
2023-03-03T22:31:21.769Z,109.78
2023-03-03T22:33:38.805Z,109.90
2023-03-03T22:35:56.144Z,113.97
2023-03-03T22:38:13.363Z,112.95
2023-03-03T22:40:30.711Z,109.25
2023-03-03T22:42:47.820Z,110.13
2023-03-03T22:45:04.766Z,107.72
2023-03-03T22:47:21.829Z,108.25
2023-03-03T22:49:38.943Z,99.10
2023-03-03T22:51:55.952Z,108.15
2023-03-03T22:54:13.038Z,105.70
2023-03-03T22:56:29.965Z,101.88
2023-03-03T22:58:46.987Z,104.00
2023-03-03T23:01:04.287Z,105.10
2023-03-03T23:03:21.331Z,128.95
2023-03-03T23:05:38.684Z,124.43
2023-03-03T23:07:55.723Z,119.25
2023-03-03T23:10:12.750Z,109.30
2023-03-03T23:12:29.874Z,105.68
2023-03-03T23:14:46.827Z,105.43
2023-03-03T23:17:04.218Z,95.95
2023-03-03T23:19:21.510Z,108.57
2023-03-03T23:21:38.484Z,102.60
2023-03-03T23:23:55.428Z,109.75
2023-03-03T23:26:12.787Z,103.35
2023-03-03T23:28:31.059Z,104.10
2023-03-03T23:30:48.269Z,103.97
2023-03-03T23:33:05.502Z,101.55
2023-03-03T23:35:22.545Z,103.65
2023-03-03T23:37:39.454Z,104.43
2023-03-03T23:39:56.748Z,117.65
2023-03-03T23:42:13.803Z,113.22
2023-03-03T23:44:30.936Z,103.13
2023-03-03T23:46:48.080Z,110.00
2023-03-03T23:49:05.051Z,108.88
2023-03-03T23:51:22.344Z,113.32
2023-03-03T23:53:40.278Z,115.40
2023-03-03T23:55:57.330Z,112.47
2023-03-03T23:58:14.254Z,110.25
